Time;durP1;ratioP1;P1;durP2;ratioP2;P2;SDS_P1;SDS_P2;PMS_P1;PMS_P2;Temp;Humidity;BMP_temperature;BMP_pressure;BME280_temperature;BME280_humidity;BME280_pressure;Samples;Min_cycle;Max_cycle;Signal;HPM_P1;HPM_P2
2021/01/24 00:01:07;;;;;;;22.30;16.45;;;3.80;91.30;;;;;;5001843;28;20029;-90
2021/01/24 00:03:56;;;;;;;26.20;17.73;;;3.80;91.30;;;;;;5016253;28;20059;-90
2021/01/24 00:07:08;;;;;;;26.67;18.17;;;3.80;91.30;;;;;;5052863;28;20051;-89
2021/01/24 00:09:36;;;;;;;25.27;18.70;;;3.90;91.30;;;;;;5035017;28;20041;-89
2021/01/24 00:12:22;;;;;;;25.48;18.58;;;3.80;91.30;;;;;;5053050;28;20021;-91
2021/01/24 00:15:19;;;;;;;;;;;;;;;;;;;;;
2021/01/24 00:18:00;;;;;;;;;;;;;;;;;;;;;
2021/01/24 00:23:20;;;;;;;30.42;20.40;;;3.80;91.40;;;;;;5013697;28;20025;-89
2021/01/24 00:26:01;;;;;;;;;;;;;;;;;;;;;
2021/01/24 00:28:35;;;;;;;30.25;21.15;;;3.80;91.50;;;;;;5019792;28;20052;-90
2021/01/24 00:31:19;;;;;;;32.63;20.80;;;3.80;91.60;;;;;;5025079;28;20489;-90
2021/01/24 00:37:02;;;;;;;31.10;22.25;;;3.80;91.60;;;;;;4996521;28;20081;-90
2021/01/24 00:39:38;;;;;;;;;;;;;;;;;;;;;
2021/01/24 00:42:14;;;;;;;;;;;;;;;;;;;;;
2021/01/24 00:44:48;;;;;;;25.25;17.05;;;3.70;91.60;;;;;;5025748;28;20044;-89
2021/01/24 00:47:27;;;;;;;24.38;16.83;;;3.70;91.60;;;;;;5042350;28;20096;-91
2021/01/24 00:50:20;;;;;;;;;;;;;;;;;;;;;
2021/01/24 00:52:51;;;;;;;23.10;15.82;;;3.70;91.50;;;;;;5054345;28;20027;-91
2021/01/24 00:55:24;;;;;;;21.47;14.87;;;3.70;91.50;;;;;;5036358;28;20029;-89
2021/01/24 00:58:16;;;;;;;19.88;14.07;;;3.70;91.50;;;;;;5033985;28;20280;-90
2021/01/24 01:01:02;;;;;;;24.45;15.98;;;3.70;91.50;;;;;;5016779;28;20127;-89
2021/01/24 01:03:43;;;;;;;18.02;13.27;;;3.70;91.50;;;;;;5052314;28;20106;-89
2021/01/24 01:06:26;;;;;;;17.83;13.05;;;3.60;91.50;;;;;;5036785;28;20076;-91
2021/01/24 01:08:54;;;;;;;21.10;13.85;;;3.70;91.50;;;;;;5034304;28;20025;-91
2021/01/24 01:11:33;;;;;;;22.45;13.65;;;3.70;91.50;;;;;;5026793;28;20026;-90
2021/01/24 01:14:21;;;;;;;19.25;12.80;;;3.60;91.50;;;;;;5066880;28;20067;-90
2021/01/24 01:17:05;;;;;;;21.73;12.85;;;3.70;91.50;;;;;;5020628;28;20068;-90
2021/01/24 01:19:59;;;;;;;18.95;12.32;;;3.70;91.50;;;;;;5041594;28;20033;-90
2021/01/24 01:22:35;;;;;;;20.17;12.00;;;3.70;91.50;;;;;;5036289;28;20033;-90
2021/01/24 01:25:15;;;;;;;16.30;12.15;;;3.60;91.40;;;;;;5046814;28;20037;-88
2021/01/24 01:27:45;;;;;;;19.80;12.18;;;3.50;91.40;;;;;;5028872;28;20025;-90
2021/01/24 01:30:58;;;;;;;17.77;11.10;;;3.60;91.50;;;;;;5023610;28;20029;-89
2021/01/24 01:36:37;;;;;;;15.20;10.30;;;3.50;91.50;;;;;;5042078;28;20032;-88
2021/01/24 01:39:12;;;;;;;15.88;9.77;;;3.50;91.40;;;;;;5049369;28;20028;-89
2021/01/24 01:42:03;;;;;;;15.88;9.75;;;3.50;91.50;;;;;;5019158;28;20099;-90
2021/01/24 01:44:36;;;;;;;15.35;10.80;;;3.50;91.50;;;;;;5021465;28;20108;-90
2021/01/24 01:47:43;;;;;;;15.98;10.40;;;3.50;91.50;;;;;;5035770;28;20032;-90
2021/01/24 01:50:28;;;;;;;13.10;9.63;;;3.50;91.40;;;;;;5047699;28;20033;-89
2021/01/24 01:52:58;;;;;;;18.30;10.07;;;3.40;91.50;;;;;;5052937;28;20033;-89
2021/01/24 01:55:53;;;;;;;13.77;9.25;;;3.40;91.50;;;;;;5056584;28;20025;-88
2021/01/24 01:58:30;;;;;;;16.95;10.32;;;3.40;91.50;;;;;;5054552;28;20098;-89
2021/01/24 02:01:03;;;;;;;13.90;9.55;;;3.40;91.50;;;;;;5035820;28;20079;-88
2021/01/24 02:04:25;;;;;;;16.38;10.05;;;3.40;91.50;;;;;;5054951;28;20095;-89
2021/01/24 02:10:29;;;;;;;13.15;9.15;;;3.40;91.50;;;;;;5035377;28;20041;-89
2021/01/24 02:13:44;;;;;;;14.20;9.80;;;3.40;91.50;;;;;;5050559;28;20032;-88
2021/01/24 02:16:41;;;;;;;;;;;;;;;;;;;;;
2021/01/24 02:19:33;;;;;;;;;;;;;;;;;;;;;
2021/01/24 02:22:01;;;;;;;;;;;3.40;91.60;;;;;;5056918;28;20033;-89
2021/01/24 02:24:39;;;;;;;12.05;7.32;;;3.30;91.50;;;;;;5050199;28;19916;-89
2021/01/24 02:27:34;;;;;;;11.73;7.13;;;3.40;91.60;;;;;;5048682;28;20026;-89
2021/01/24 02:30:30;;;;;;;11.13;7.65;;;3.30;91.50;;;;;;5050666;28;20079;-89
2021/01/24 02:33:07;;;;;;;12.82;7.18;;;3.30;91.50;;;;;;5020035;28;20038;-89
2021/01/24 02:35:44;;;;;;;12.05;7.28;;;3.30;91.50;;;;;;5044555;28;20060;-89
2021/01/24 02:38:24;;;;;;;10.07;6.18;;;3.20;91.50;;;;;;5055270;28;20063;-90
2021/01/24 02:41:03;;;;;;;;;;;;;;;;;;;;;
2021/01/24 02:43:41;;;;;;;10.32;6.30;;;3.30;91.60;;;;;;5054975;28;20498;-89
2021/01/24 02:46:40;;;;;;;9.38;5.63;;;3.30;91.60;;;;;;5054531;28;20047;-88
2021/01/24 02:52:42;;;;;;;;;;;;;;;;;;;;;
2021/01/24 02:55:15;;;;;;;10.55;5.55;;;3.30;91.50;;;;;;5036648;28;20029;-90
2021/01/24 02:57:57;;;;;;;;;;;;;;;;;;;;;
2021/01/24 03:00:35;;;;;;;;;;;3.30;91.50;;;;;;5037974;28;20039;-89
2021/01/24 03:03:07;;;;;;;7.55;4.90;;;3.30;91.50;;;;;;5052894;28;19916;-91
2021/01/24 03:05:35;;;;;;;;;;;3.20;91.50;;;;;;5052186;28;20040;-88
2021/01/24 03:08:57;;;;;;;;;;;;;;;;;;;;;
2021/01/24 03:11:37;;;;;;;7.63;4.97;;;3.30;91.50;;;;;;5039124;28;20041;-89
2021/01/24 03:14:22;;;;;;;8.75;5.57;;;3.30;91.50;;;;;;5035005;28;20365;-91
2021/01/24 03:17:20;;;;;;;10.85;5.60;;;3.30;91.50;;;;;;5057505;28;20041;-88
2021/01/24 03:20:27;;;;;;;8.10;5.85;;;3.30;91.60;;;;;;5050840;28;20051;-89
2021/01/24 03:23:19;;;;;;;9.85;5.63;;;3.40;91.60;;;;;;5039172;28;20044;-90
2021/01/24 03:26:03;;;;;;;7.80;6.07;;;3.40;91.70;;;;;;5054060;28;20067;-90
2021/01/24 03:29:03;;;;;;;;;;;;;;;;;;;;;
2021/01/24 03:31:36;;;;;;;11.57;5.57;;;3.40;91.70;;;;;;5040973;28;20041;-89
2021/01/24 03:34:17;;;;;;;10.50;7.50;;;3.50;91.70;;;;;;5034357;28;20469;-91
2021/01/24 03:41:07;;;;;;;;;;;;;;;;;;;;;
2021/01/24 03:43:14;;;;;;;10.02;6.85;;;3.50;91.80;;;;;;5047904;28;20040;-90
2021/01/24 03:45:52;;;;;;;12.48;7.65;;;3.50;91.80;;;;;;5050667;28;20114;-90
2021/01/24 03:48:38;;;;;;;12.20;7.57;;;3.50;91.80;;;;;;5031612;28;20060;-90
2021/01/24 03:54:13;;;;;;;13.73;8.38;;;3.60;91.80;;;;;;5019516;28;20381;-90
2021/01/24 03:57:06;;;;;;;12.35;9.05;;;3.60;91.80;;;;;;5050712;28;20026;-90
2021/01/24 04:00:07;;;;;;;;;;;;;;;;;;;;;
2021/01/24 04:02:53;;;;;;;;;;;;;;;;;;;;;
2021/01/24 04:05:44;;;;;;;13.82;9.90;;;3.60;91.80;;;;;;5041971;28;20029;-91
2021/01/24 04:08:13;;;;;;;14.50;8.88;;;3.60;91.80;;;;;;5014918;28;20045;-89
2021/01/24 04:10:58;;;;;;;14.32;9.40;;;3.60;91.80;;;;;;5029545;28;20045;-90
2021/01/24 04:20:17;;;;;;;15.48;10.35;;;3.60;91.80;;;;;;5044835;28;20043;-90
2021/01/24 04:23:06;;;;;;;13.48;9.63;;;3.60;91.80;;;;;;5026140;28;20029;-90
2021/01/24 04:25:39;;;;;;;15.48;9.75;;;3.60;91.80;;;;;;5035732;28;20037;-89
2021/01/24 04:28:21;;;;;;;17.02;9.95;;;3.60;91.80;;;;;;5038245;28;20036;-89
2021/01/24 04:30:57;;;;;;;13.80;9.30;;;3.60;91.90;;;;;;5037611;28;20040;-89
2021/01/24 04:33:26;;;;;;;15.82;9.70;;;3.60;91.90;;;;;;5051313;28;20032;-90
2021/01/24 04:36:09;;;;;;;15.57;9.52;;;3.60;91.90;;;;;;5050383;28;20546;-89
2021/01/24 04:38:43;;;;;;;18.02;10.43;;;3.60;91.80;;;;;;5053470;28;20025;-89
2021/01/24 04:41:24;;;;;;;14.90;9.05;;;3.60;91.90;;;;;;5049741;28;20068;-89
2021/01/24 04:44:10;;;;;;;15.27;9.35;;;3.60;91.90;;;;;;5064458;28;20029;-89
2021/01/24 04:46:42;;;;;;;15.10;9.82;;;3.60;91.90;;;;;;5048353;28;20026;-90
2021/01/24 04:49:38;;;;;;;14.88;9.15;;;3.60;91.90;;;;;;5036912;28;20102;-89
2021/01/24 04:52:48;;;;;;;15.00;9.95;;;3.60;91.90;;;;;;5033201;28;20049;-89
2021/01/24 04:55:15;;;;;;;15.05;9.40;;;3.60;91.90;;;;;;5037680;28;20484;-90
2021/01/24 04:57:53;;;;;;;14.38;9.05;;;3.50;91.90;;;;;;5050528;28;20049;-89
2021/01/24 05:00:35;;;;;;;;;;;;;;;;;;;;;
2021/01/24 05:03:06;;;;;;;12.95;8.40;;;3.60;91.90;;;;;;5035929;28;20654;-89
2021/01/24 05:06:01;;;;;;;14.32;9.60;;;3.60;91.90;;;;;;5031680;28;20043;-89
2021/01/24 05:08:41;;;;;;;;;;;;;;;;;;;;;
2021/01/24 05:11:25;;;;;;;15.63;9.48;;;3.60;91.90;;;;;;5032213;28;20044;-89
2021/01/24 05:14:11;;;;;;;15.18;9.07;;;3.60;91.90;;;;;;5006934;28;20029;-89
2021/01/24 05:16:45;;;;;;;12.45;8.80;;;3.60;91.90;;;;;;5001579;28;20045;-89
2021/01/24 05:19:44;;;;;;;;;;;;;;;;;;;;;
2021/01/24 05:22:49;;;;;;;14.05;8.40;;;3.50;91.90;;;;;;5003092;28;20034;-88
2021/01/24 05:25:36;;;;;;;13.15;8.05;;;3.50;91.90;;;;;;5015410;28;20065;-89
2021/01/24 05:28:37;;;;;;;;;;;;;;;;;;;;;
2021/01/24 05:31:31;;;;;;;13.20;9.25;;;3.50;92.00;;;;;;5040665;28;20033;-90
2021/01/24 05:34:07;;;;;;;16.40;9.30;;;3.60;92.00;;;;;;5019772;28;20116;-89
2021/01/24 05:37:24;;;;;;;17.70;10.15;;;3.50;91.90;;;;;;5007190;28;20029;-90
2021/01/24 05:39:56;;;;;;;15.57;9.98;;;3.50;91.90;;;;;;5031731;28;20029;-89
2021/01/24 05:42:40;;;;;;;14.98;9.05;;;3.50;91.90;;;;;;5025198;28;20034;-90
2021/01/24 05:45:25;;;;;;;13.38;9.05;;;3.50;91.90;;;;;;5020647;28;20484;-89
2021/01/24 05:51:02;;;;;;;15.07;9.13;;;3.50;92.00;;;;;;5020052;28;20049;-89
2021/01/24 05:53:36;;;;;;;12.25;8.05;;;3.40;91.90;;;;;;5030547;28;20041;-92
2021/01/24 05:56:35;;;;;;;;;;;;;;;;;;;;;
2021/01/24 05:59:16;;;;;;;;;;;;;;;;;;;;;
2021/01/24 06:02:11;;;;;;;12.30;7.30;;;3.40;91.90;;;;;;5030104;28;20090;-92
2021/01/24 06:08:19;;;;;;;11.48;6.80;;;3.40;92.00;;;;;;5043499;28;20095;-90
2021/01/24 06:10:57;;;;;;;11.35;7.35;;;3.40;92.00;;;;;;5037909;28;20110;-91
2021/01/24 06:13:42;;;;;;;;;;;;;;;;;;;;;
2021/01/24 06:16:29;;;;;;;8.43;5.43;;;3.40;92.00;;;;;;5037710;28;20030;-90
2021/01/24 06:19:18;;;;;;;;;;;;;;;;;;;;;
2021/01/24 06:22:10;;;;;;;;;;;;;;;;;;;;;
2021/01/24 06:24:56;;;;;;;9.35;5.63;;;3.30;92.00;;;;;;5048651;28;20029;-89
2021/01/24 06:27:37;;;;;;;9.57;5.65;;;3.30;92.00;;;;;;5019788;28;20025;-91
2021/01/24 06:30:20;;;;;;;7.95;5.20;;;3.30;92.00;;;;;;5025989;28;20025;-90
2021/01/24 06:32:54;;;;;;;9.35;5.57;;;3.30;92.00;;;;;;5045804;28;20029;-89
2021/01/24 06:35:34;;;;;;;9.23;6.03;;;3.30;92.00;;;;;;5035836;28;20025;-89
2021/01/24 06:38:08;;;;;;;10.77;5.80;;;3.30;92.00;;;;;;5002762;28;20029;-90
2021/01/24 06:41:05;;;;;;;10.10;5.43;;;3.30;92.00;;;;;;5013526;28;20041;-90
2021/01/24 06:43:47;;;;;;;8.90;5.78;;;3.30;92.00;;;;;;5039172;28;20048;-89
2021/01/24 06:46:39;;;;;;;7.47;5.22;;;3.30;92.00;;;;;;5045821;28;20075;-89
2021/01/24 06:49:34;;;;;;;12.50;6.53;;;3.30;92.00;;;;;;5047957;28;20033;-89
2021/01/24 06:52:23;;;;;;;10.63;5.45;;;3.30;92.00;;;;;;5052785;28;20078;-89
2021/01/24 06:55:08;;;;;;;;;;;;;;;;;;;;;
2021/01/24 06:58:07;;;;;;;11.23;5.75;;;3.30;92.00;;;;;;5039986;28;20051;-88
2021/01/24 07:00:54;;;;;;;8.10;5.40;;;3.30;92.00;;;;;;5025764;28;20029;-90
2021/01/24 07:03:28;;;;;;;10.73;6.68;;;3.30;92.00;;;;;;5038104;28;20436;-90
2021/01/24 07:09:30;;;;;;;9.73;6.00;;;3.30;92.00;;;;;;5039127;28;20037;-89
2021/01/24 07:12:13;;;;;;;11.05;6.25;;;3.30;92.00;;;;;;5055075;28;20040;-89
2021/01/24 07:14:53;;;;;;;12.25;6.15;;;3.30;92.10;;;;;;5041217;28;20037;-89
2021/01/24 07:17:28;;;;;;;10.13;5.75;;;3.30;92.00;;;;;;5054578;28;20036;-90
2021/01/24 07:20:06;;;;;;;;;;;;;;;;;;;;;
2021/01/24 07:22:55;;;;;;;9.57;6.00;;;3.30;92.10;;;;;;5036105;28;20025;-89
2021/01/24 07:25:39;;;;;;;;;;;;;;;;;;;;;
2021/01/24 07:28:30;;;;;;;12.50;6.70;;;3.30;92.10;;;;;;5054575;28;20036;-90
2021/01/24 07:31:17;;;;;;;9.82;6.68;;;3.30;92.10;;;;;;5036746;28;20033;-89
2021/01/24 07:34:01;;;;;;;;;;;;;;;;;;;;;
2021/01/24 07:36:33;;;;;;;10.35;6.53;;;3.30;92.10;;;;;;5055456;28;20063;-89
2021/01/24 07:42:28;;;;;;;9.73;6.25;;;3.30;92.10;;;;;;5006220;28;20048;-89
2021/01/24 07:44:58;;;;;;;11.25;6.43;;;3.30;92.00;;;;;;5058804;28;20473;-88
2021/01/24 07:47:32;;;;;;;9.67;6.30;;;3.20;92.00;;;;;;5019192;28;20034;-89
2021/01/24 07:50:10;;;;;;;10.43;7.05;;;3.20;92.00;;;;;;5009799;28;20041;-89
2021/01/24 07:52:54;;;;;;;9.20;6.53;;;3.20;92.00;;;;;;5026696;28;20056;-91
2021/01/24 07:55:59;;;;;;;;;;;;;;;;;;;;;
2021/01/24 07:58:38;;;;;;;10.52;6.65;;;3.20;92.00;;;;;;5061749;28;20093;-93
2021/01/24 08:01:05;;;;;;;9.60;5.93;;;3.20;92.00;;;;;;5058325;28;20079;-94
2021/01/24 08:03:47;;;;;;;10.45;6.78;;;3.10;91.90;;;;;;5055336;28;20105;-90
2021/01/24 08:06:18;;;;;;;9.75;6.45;;;3.10;91.90;;;;;;5048981;28;20041;-87
2021/01/24 08:09:03;;;;;;;10.27;5.80;;;3.10;91.90;;;;;;5044334;28;20033;-92
2021/01/24 08:12:07;;;;;;;;;;;;;;;;;;;;;
2021/01/24 08:14:50;;;;;;;11.98;6.60;;;3.10;91.90;;;;;;5045737;28;20024;-93
2021/01/24 08:20:50;;;;;;;8.13;5.45;;;3.10;91.90;;;;;;5048771;28;20055;-93
2021/01/24 08:27:11;;;;;;;;;;;;;;;;;;;;;
2021/01/24 08:30:01;;;;;;;5.75;3.88;;;3.00;91.90;;;;;;5050380;28;20051;-93
2021/01/24 08:32:58;;;;;;;;;;;;;;;;;;;;;
2021/01/24 08:38:43;;;;;;;;;;;;;;;;;;;;;
2021/01/24 08:41:51;;;;;;;;;;;;;;;;;;;;;
2021/01/24 08:44:20;;;;;;;6.70;3.33;;;3.00;91.90;;;;;;5047122;28;20167;-89
2021/01/24 08:50:30;;;;;;;;;;;;;;;;;;;;;
2021/01/24 08:53:28;;;;;;;4.47;3.42;;;2.90;91.90;;;;;;5039112;28;20033;-90
2021/01/24 08:56:50;;;;;;;;;;;;;;;;;;;;;
2021/01/24 08:59:26;;;;;;;;;;;3.00;92.00;;;;;;5048522;28;20096;-88
2021/01/24 09:05:42;;;;;;;3.63;2.05;;;2.90;92.00;;;;;;5069628;28;20462;-88
2021/01/24 09:18:10;;;;;;;2.22;1.70;;;2.90;92.00;;;;;;5019460;28;19951;-88
2021/01/24 09:21:07;;;;;;;2.42;1.48;;;2.90;92.00;;;;;;5057852;28;20439;-88
2021/01/24 09:23:55;;;;;;;2.05;1.48;;;2.90;92.00;;;;;;5039967;28;20059;-88
2021/01/24 09:26:55;;;;;;;;;;;;;;;;;;;;;
2021/01/24 09:29:54;;;;;;;;;;;;;;;;;;;;;
2021/01/24 09:32:58;;;;;;;;;;;;;;;;;;;;;
2021/01/24 09:35:49;;;;;;;4.00;2.40;;;2.90;92.10;;;;;;5051585;28;20112;-89
2021/01/24 09:39:04;;;;;;;;;;;;;;;;;;;;;
2021/01/24 09:41:32;;;;;;;3.55;1.58;;;3.00;92.10;;;;;;5052854;28;20036;-90
2021/01/24 09:44:33;;;;;;;3.78;2.30;;;3.10;92.10;;;;;;5059676;28;20065;-88
2021/01/24 09:47:31;;;;;;;2.75;1.70;;;3.10;92.10;;;;;;5028687;28;20065;-91
2021/01/24 09:50:08;;;;;;;3.45;1.90;;;3.10;92.10;;;;;;5051061;28;20156;-89
2021/01/24 09:53:14;;;;;;;;;;;;;;;;;;;;;
2021/01/24 09:59:19;;;;;;;;;;;;;;;;;;;;;
2021/01/24 10:02:02;;;;;;;3.15;2.15;;;3.30;92.10;;;;;;5034741;28;20464;-89
2021/01/24 10:07:55;;;;;;;4.18;2.17;;;3.40;92.10;;;;;;5029712;28;20485;-89
2021/01/24 10:10:33;;;;;;;4.00;2.17;;;3.40;92.10;;;;;;5043768;28;20048;-89
2021/01/24 10:13:40;;;;;;;3.63;2.00;;;3.40;92.10;;;;;;5039109;28;20090;-89
2021/01/24 10:16:32;;;;;;;;;;;;;;;;;;;;;
2021/01/24 10:22:28;;;;;;;3.47;1.90;;;3.60;92.10;;;;;;5031698;28;20438;-89
2021/01/24 10:31:02;;;;;;;3.45;1.80;;;3.70;92.00;;;;;;5045241;28;20124;-90
2021/01/24 10:34:03;;;;;;;;;;;;;;;;;;;;;
2021/01/24 10:37:18;;;;;;;3.30;1.60;;;3.90;92.00;;;;;;5056827;28;20033;-89
2021/01/24 10:43:06;;;;;;;2.55;1.40;;;3.90;91.90;;;;;;5039208;28;20128;-89
2021/01/24 10:45:49;;;;;;;2.08;1.40;;;4.00;91.90;;;;;;5047485;28;20099;-90
2021/01/24 10:54:53;;;;;;;4.03;1.20;;;4.10;91.70;;;;;;5024144;28;20131;-88
2021/01/24 10:57:26;;;;;;;3.10;1.00;;;4.10;91.70;;;;;;5068601;28;20025;-88
2021/01/24 11:00:27;;;;;;;3.97;1.10;;;4.20;91.60;;;;;;5048893;28;20025;-89
2021/01/24 11:03:25;;;;;;;3.05;1.10;;;4.20;91.60;;;;;;4997369;28;20121;-89
2021/01/24 11:06:09;;;;;;;;;;;;;;;;;;;;;
2021/01/24 11:09:36;;;;;;;;;;;;;;;;;;;;;
2021/01/24 11:15:31;;;;;;;2.72;1.17;;;4.40;91.60;;;;;;5035218;28;20153;-90
2021/01/24 11:18:45;;;;;;;3.70;1.27;;;4.40;91.50;;;;;;5028449;28;20076;-90
2021/01/24 11:21:46;;;;;;;3.50;1.20;;;4.50;91.50;;;;;;5064436;28;20112;-89
2021/01/24 11:25:02;;;;;;;5.13;2.00;;;4.50;91.40;;;;;;5044034;28;20041;-90
2021/01/24 11:27:53;;;;;;;4.00;1.75;;;4.60;91.40;;;;;;5038251;28;20029;-90
2021/01/24 11:30:43;;;;;;;;;;;;;;;;;;;;;
2021/01/24 11:33:51;;;;;;;4.50;1.65;;;4.70;91.40;;;;;;5049496;28;20387;-90
2021/01/24 11:36:56;;;;;;;3.03;1.25;;;4.70;91.30;;;;;;5042962;28;20068;-91
2021/01/24 11:39:58;;;;;;;;;;;;;;;;;;;;;
2021/01/24 11:43:29;;;;;;;2.03;1.15;;;4.80;91.30;;;;;;5046235;28;20029;-90
2021/01/24 11:46:13;;;;;;;2.42;1.60;;;4.80;91.20;;;;;;5011274;28;20389;-91
2021/01/24 11:52:50;;;;;;;3.15;1.40;;;4.90;91.10;;;;;;5007996;28;20053;-94
2021/01/24 11:59:35;;;;;;;;;;;;;;;;;;;;;
2021/01/24 12:02:59;;;;;;;6.03;1.58;;;5.10;91.00;;;;;;4972938;28;20037;-91
2021/01/24 12:28:07;;;;;;;;;;;;;;;;;;;;;
2021/01/24 12:31:25;;;;;;;;;;;;;;;;;;;;;
2021/01/24 12:37:57;;;;;;;;;;;;;;;;;;;;;
2021/01/24 12:45:37;;;;;;;;;;;;;;;;;;;;;
2021/01/24 12:48:24;;;;;;;;;;;;;;;;;;;;;
2021/01/24 13:57:05;;;;;;;7.53;3.35;;;5.70;86.50;;;;;;4968025;28;20039;-91
2021/01/24 14:04:35;;;;;;;7.97;3.30;;;5.60;86.20;;;;;;4941008;28;20047;-91
2021/01/24 14:07:43;;;;;;;6.35;3.00;;;5.60;85.90;;;;;;4950857;28;20037;-91
2021/01/24 14:14:06;;;;;;;;;;;;;;;;;;;;;
2021/01/24 14:20:58;;;;;;;;;;;;;;;;;;;;;
2021/01/24 14:27:15;;;;;;;6.55;3.33;;;5.40;85.60;;;;;;4871853;29;20045;-90
2021/01/24 14:30:54;;;;;;;;;;;;;;;;;;;;;
2021/01/24 14:34:14;;;;;;;;;;;;;;;;;;;;;
2021/01/24 14:38:04;;;;;;;7.63;4.55;;;5.40;85.30;;;;;;4916974;29;20153;-89
2021/01/24 14:40:39;;;;;;;;;;;;;;;;;;;;;
2021/01/24 14:43:50;;;;;;;;;;;;;;;;;;;;;
2021/01/24 14:46:41;;;;;;;5.28;3.20;;;5.30;84.60;;;;;;5007929;28;20129;-90
2021/01/24 14:49:30;;;;;;;;;;;;;;;;;;;;;
2021/01/24 14:55:17;;;;;;;;;;;;;;;;;;;;;
2021/01/24 14:58:51;;;;;;;;;;;;;;;;;;;;;
2021/01/24 15:01:36;;;;;;;;;;;;;;;;;;;;;
2021/01/24 15:08:23;;;;;;;;;;;;;;;;;;;;;
2021/01/24 15:15:11;;;;;;;;;;;;;;;;;;;;;
2021/01/24 15:18:10;;;;;;;;;;;;;;;;;;;;;
2021/01/24 15:21:00;;;;;;;;;;;;;;;;;;;;;
2021/01/24 15:24:42;;;;;;;;;;;;;;;;;;;;;
2021/01/24 15:33:33;;;;;;;;;;;;;;;;;;;;;
2021/01/24 15:36:31;;;;;;;;;;;;;;;;;;;;;
2021/01/24 15:39:25;;;;;;;6.00;4.50;;;4.80;84.60;;;;;;5031304;28;20109;-88
2021/01/24 15:42:27;;;;;;;;;;;;;;;;;;;;;
2021/01/24 15:45:21;;;;;;;9.25;4.57;;;4.80;84.90;;;;;;5032323;28;20112;-88
2021/01/24 15:48:23;;;;;;;;;;;;;;;;;;;;;
2021/01/24 15:54:29;;;;;;;;;;;4.70;85.00;;;;;;5010440;28;20033;-89
2021/01/24 15:58:01;;;;;;;6.13;4.28;;;4.70;85.00;;;;;;5022942;28;20014;-88
2021/01/24 16:03:46;;;;;;;;;;;;;;;;;;;;;
2021/01/24 16:06:35;;;;;;;;;;;;;;;;;;;;;
2021/01/24 16:09:51;;;;;;;5.05;3.63;;;4.60;85.00;;;;;;5049542;28;20383;-88
2021/01/24 16:13:08;;;;;;;;;;;;;;;;;;;;;
2021/01/24 16:16:26;;;;;;;;;;;;;;;;;;;;;
2021/01/24 16:26:07;;;;;;;;;;;;;;;;;;;;;
2021/01/24 16:32:40;;;;;;;;;;;;;;;;;;;;;
2021/01/24 16:45:18;;;;;;;9.00;6.60;;;4.20;85.60;;;;;;5052738;28;20032;-87
2021/01/24 16:47:54;;;;;;;;;;;;;;;;;;;;;
2021/01/24 16:50:32;;;;;;;;;;;;;;;;;;;;;
2021/01/24 16:56:52;;;;;;;14.18;8.25;;;4.10;85.90;;;;;;5000121;28;20046;-89
2021/01/24 16:59:46;;;;;;;11.73;8.23;;;4.00;85.90;;;;;;4973974;28;20042;-87
2021/01/24 17:02:15;;;;;;;13.18;8.90;;;4.00;86.00;;;;;;4971240;28;20031;-87
2021/01/24 17:04:50;;;;;;;12.10;8.95;;;4.00;86.00;;;;;;4956181;28;20058;-86
2021/01/24 17:07:35;;;;;;;11.55;9.18;;;4.00;86.10;;;;;;4965721;28;20050;-86
2021/01/24 17:10:22;;;;;;;11.10;9.05;;;3.90;86.00;;;;;;4980689;28;20050;-86
2021/01/24 17:13:23;;;;;;;12.00;9.20;;;3.90;86.00;;;;;;4973276;28;20038;-86
2021/01/24 17:16:23;;;;;;;12.45;9.60;;;3.90;86.20;;;;;;5022677;28;20041;-87
2021/01/24 17:19:32;;;;;;;;;;;;;;;;;;;;;
2021/01/24 17:22:07;;;;;;;15.38;11.55;;;3.80;86.20;;;;;;5038137;28;20025;-89
2021/01/24 17:25:11;;;;;;;;;;;;;;;;;;;;;
2021/01/24 17:27:59;;;;;;;12.65;8.15;;;3.70;86.30;;;;;;5030929;28;20473;-87
2021/01/24 17:30:32;;;;;;;11.45;8.38;;;3.70;86.40;;;;;;5030405;28;20112;-86
2021/01/24 17:36:18;;;;;;;12.00;8.18;;;3.70;86.40;;;;;;5048550;28;20112;-86
2021/01/24 17:38:56;;;;;;;12.68;9.15;;;3.60;86.40;;;;;;5031373;28;20099;-89
2021/01/24 17:41:26;;;;;;;10.43;7.82;;;3.70;86.60;;;;;;5030876;28;20044;-88
2021/01/24 17:44:15;;;;;;;12.07;8.10;;;3.60;86.60;;;;;;5018758;28;20033;-86
2021/01/24 17:47:01;;;;;;;12.30;7.85;;;3.60;86.70;;;;;;5034572;28;20036;-86
2021/01/24 17:49:33;;;;;;;10.77;8.00;;;3.60;86.60;;;;;;5052115;28;20029;-89
2021/01/24 17:52:25;;;;;;;12.05;8.05;;;3.60;86.60;;;;;;5034899;28;20075;-87
2021/01/24 17:55:06;;;;;;;;;;;;;;;;;;;;;
2021/01/24 17:57:42;;;;;;;;;;;;;;;;;;;;;
2021/01/24 18:00:20;;;;;;;11.55;7.85;;;3.50;86.70;;;;;;5052139;28;20032;-88
2021/01/24 18:03:17;;;;;;;12.13;7.88;;;3.50;86.80;;;;;;5051343;28;20033;-86
2021/01/24 18:05:53;;;;;;;11.18;8.23;;;3.50;86.80;;;;;;5050389;28;20396;-86
2021/01/24 18:09:09;;;;;;;;;;;;;;;;;;;;;
2021/01/24 18:11:54;;;;;;;;;;;;;;;;;;;;;
2021/01/24 18:14:32;;;;;;;;;;;;;;;;;;;;;
2021/01/24 18:17:07;;;;;;;12.52;9.25;;;3.40;87.20;;;;;;5032892;28;20044;-87
2021/01/24 18:19:33;;;;;;;14.07;9.68;;;3.40;87.30;;;;;;5006126;28;20033;-87
2021/01/24 18:22:30;;;;;;;13.23;9.50;;;3.40;87.40;;;;;;5050783;28;20029;-87
2021/01/24 18:25:14;;;;;;;16.38;9.55;;;3.40;87.50;;;;;;5030351;28;20067;-87
2021/01/24 18:28:20;;;;;;;;;;;;;;;;;;;;;
2021/01/24 18:31:08;;;;;;;;;;;;;;;;;;;;;
2021/01/24 18:33:44;;;;;;;14.90;9.15;;;3.40;87.60;;;;;;5050715;28;20476;-89
2021/01/24 18:36:35;;;;;;;;;;;;;;;;;;;;;
2021/01/24 18:39:24;;;;;;;15.77;9.90;;;3.40;87.80;;;;;;5053698;28;20029;-88
2021/01/24 18:41:58;;;;;;;13.02;9.25;;;3.40;87.90;;;;;;5051126;28;20317;-89
2021/01/24 18:44:35;;;;;;;15.10;10.02;;;3.40;87.90;;;;;;5050812;28;20025;-86
2021/01/24 18:50:49;;;;;;;16.20;10.40;;;3.40;88.00;;;;;;5029798;28;20037;-87
2021/01/24 18:53:26;;;;;;;16.13;10.63;;;3.30;88.00;;;;;;5043600;28;20049;-89
2021/01/24 19:00:00;;;;;;;16.42;10.48;;;3.30;88.00;;;;;;5035066;28;20045;-87
2021/01/24 19:02:35;;;;;;;16.33;10.63;;;3.30;88.00;;;;;;5044917;28;20071;-89
2021/01/24 19:05:06;;;;;;;15.00;10.55;;;3.30;87.90;;;;;;5045134;28;20054;-88
2021/01/24 19:07:55;;;;;;;18.73;11.23;;;3.20;87.90;;;;;;5014670;28;20053;-89
2021/01/24 19:10:26;;;;;;;15.85;11.13;;;3.20;87.90;;;;;;5005396;28;20053;-88
2021/01/24 19:13:15;;;;;;;16.95;9.63;;;3.20;88.00;;;;;;5014035;28;20473;-87
2021/01/24 19:22:36;;;;;;;20.85;12.32;;;3.10;88.00;;;;;;4999675;28;20049;-87
2021/01/24 19:32:07;;;;;;;15.68;10.15;;;3.00;88.00;;;;;;5012011;28;20180;-89
2021/01/24 19:34:44;;;;;;;17.05;11.00;;;3.00;88.10;;;;;;5003176;28;20564;-89
2021/01/24 19:37:45;;;;;;;15.52;10.30;;;3.00;88.10;;;;;;4996648;28;20060;-87
2021/01/24 19:40:30;;;;;;;;;;;;;;;;;;;;;
2021/01/24 19:43:10;;;;;;;17.73;11.27;;;3.00;88.00;;;;;;5032666;28;20025;-89
2021/01/24 19:45:41;;;;;;;16.30;10.15;;;2.90;87.90;;;;;;5022147;28;20018;-89
2021/01/24 19:48:18;;;;;;;17.50;10.68;;;2.90;88.00;;;;;;5016772;28;20457;-87
2021/01/24 19:51:14;;;;;;;20.17;11.50;;;2.90;88.10;;;;;;5028711;28;20038;-88
2021/01/24 19:54:04;;;;;;;16.98;11.13;;;2.90;88.00;;;;;;5025275;28;20092;-87
2021/01/24 19:56:44;;;;;;;18.63;11.60;;;2.80;88.00;;;;;;5015895;28;20124;-87
2021/01/24 19:59:55;;;;;;;;;;;;;;;;;;;;;
2021/01/24 20:02:24;;;;;;;18.42;10.70;;;2.80;88.00;;;;;;5027967;28;20037;-87
2021/01/24 20:05:03;;;;;;;;;;;;;;;;;;;;;
2021/01/24 20:08:01;;;;;;;17.48;11.23;;;2.70;88.10;;;;;;5047559;28;20047;-89
2021/01/24 20:10:40;;;;;;;18.33;10.65;;;2.70;88.20;;;;;;5049542;28;20025;-88
2021/01/24 20:13:33;;;;;;;16.13;10.05;;;2.70;88.30;;;;;;5032272;28;20559;-86
2021/01/24 20:16:05;;;;;;;16.88;11.10;;;2.70;88.40;;;;;;5034745;28;20036;-86
2021/01/24 20:18:49;;;;;;;17.00;10.45;;;2.60;88.30;;;;;;5035820;28;20033;-88
2021/01/24 20:21:31;;;;;;;19.80;11.73;;;2.60;88.40;;;;;;5036421;28;20476;-87
2021/01/24 20:24:13;;;;;;;;;;;;;;;;;;;;;
2021/01/24 20:27:05;;;;;;;20.73;11.38;;;2.60;88.40;;;;;;5049753;28;20032;-87
2021/01/24 20:29:36;;;;;;;19.25;11.50;;;2.60;88.50;;;;;;5067681;28;20029;-86
2021/01/24 20:32:13;;;;;;;15.75;10.63;;;2.60;88.50;;;;;;5052228;28;20558;-86
2021/01/24 20:34:56;;;;;;;17.63;11.70;;;2.60;88.50;;;;;;5034301;28;20057;-88
2021/01/24 20:37:32;;;;;;;18.52;11.02;;;2.60;88.60;;;;;;5034882;28;20790;-86
2021/01/24 20:43:17;;;;;;;17.02;10.90;;;2.60;88.70;;;;;;5048221;28;20094;-86
2021/01/24 20:45:43;;;;;;;17.88;11.80;;;2.60;88.70;;;;;;5049178;28;20029;-88
2021/01/24 20:48:14;;;;;;;15.85;11.13;;;2.60;88.70;;;;;;5067168;28;20052;-88
2021/01/24 20:51:35;;;;;;;15.73;11.07;;;2.60;88.70;;;;;;5044070;28;20133;-85
2021/01/24 20:54:07;;;;;;;;;;;;;;;;;;;;;
2021/01/24 20:56:50;;;;;;;17.13;10.73;;;2.50;88.70;;;;;;5051133;28;20295;-86
2021/01/24 20:59:22;;;;;;;17.90;10.30;;;2.50;88.70;;;;;;5048908;28;20032;-87
2021/01/24 21:02:09;;;;;;;;;;;;;;;;;;;;;
2021/01/24 21:05:08;;;;;;;;;;;;;;;;;;;;;
2021/01/24 21:12:17;;;;;;;;;;;;;;;;;;;;;
2021/01/24 21:14:15;;;;;;;17.95;11.27;;;2.50;88.90;;;;;;5033349;28;20058;-87
2021/01/24 21:17:22;;;;;;;17.17;11.00;;;2.50;88.90;;;;;;5017803;28;20029;-88
2021/01/24 21:20:27;;;;;;;;;;;;;;;;;;;;;
2021/01/24 21:23:34;;;;;;;21.70;12.35;;;2.50;89.00;;;;;;5043276;28;20035;-88
2021/01/24 21:29:36;;;;;;;;;;;;;;;;;;;;;
2021/01/24 21:32:16;;;;;;;19.73;12.02;;;2.40;88.80;;;;;;5048076;28;20033;-87
2021/01/24 21:35:19;;;;;;;19.40;12.50;;;2.30;88.80;;;;;;5009018;28;20049;-86
2021/01/24 21:38:06;;;;;;;16.80;11.07;;;2.30;88.90;;;;;;5029472;28;20033;-87
2021/01/24 21:47:19;;;;;;;16.85;10.80;;;2.30;89.10;;;;;;5019304;28;20044;-89
2021/01/24 21:50:37;;;;;;;19.75;10.90;;;2.30;89.10;;;;;;5022764;28;20040;-87